sensor_id;sensor_type;location;lat;lon;timestamp;pressure;altitude;pressure_sealevel;temperature;humidity
54920;BME280;63804;53.120;8.764;2022-12-07T00:00:51;101422.66;;;6.19;53.16
54920;BME280;63804;53.120;8.764;2022-12-07T00:03:16;101422.81;;;6.09;53.35
54920;BME280;63804;53.120;8.764;2022-12-07T00:05:42;101421.81;;;6.05;53.33
54920;BME280;63804;53.120;8.764;2022-12-07T00:08:08;101419.09;;;6.05;53.31
54920;BME280;63804;53.120;8.764;2022-12-07T00:10:34;101411.63;;;5.97;53.26
54920;BME280;63804;53.120;8.764;2022-12-07T00:13:00;101410.56;;;5.98;53.16
54920;BME280;63804;53.120;8.764;2022-12-07T00:15:26;101416.56;;;5.94;53.04
54920;BME280;63804;53.120;8.764;2022-12-07T00:17:51;101414.72;;;5.90;52.89
54920;BME280;63804;53.120;8.764;2022-12-07T00:20:17;101415.09;;;5.83;53.20
54920;BME280;63804;53.120;8.764;2022-12-07T00:22:43;101412.88;;;5.85;53.24
54920;BME280;63804;53.120;8.764;2022-12-07T00:25:09;101415.59;;;5.85;52.91
54920;BME280;63804;53.120;8.764;2022-12-07T00:27:34;101418.88;;;5.82;53.17
54920;BME280;63804;53.120;8.764;2022-12-07T00:30:00;101418.97;;;5.77;53.20
54920;BME280;63804;53.120;8.764;2022-12-07T00:32:26;101416.72;;;5.84;53.13
54920;BME280;63804;53.120;8.764;2022-12-07T00:34:52;101418.59;;;5.84;53.10
54920;BME280;63804;53.120;8.764;2022-12-07T00:37:17;101421.75;;;5.91;52.97
54920;BME280;63804;53.120;8.764;2022-12-07T00:39:43;101412.59;;;5.87;53.06
54920;BME280;63804;53.120;8.764;2022-12-07T00:42:09;101404.50;;;6.01;52.57
54920;BME280;63804;53.120;8.764;2022-12-07T00:44:34;101410.75;;;6.01;52.54
54920;BME280;63804;53.120;8.764;2022-12-07T00:47:00;101414.94;;;5.93;52.60
54920;BME280;63804;53.120;8.764;2022-12-07T00:49:26;101404.19;;;5.88;52.66
54920;BME280;63804;53.120;8.764;2022-12-07T00:51:52;101412.09;;;5.85;52.63
54920;BME280;63804;53.120;8.764;2022-12-07T00:54:17;101397.38;;;5.91;52.56
54920;BME280;63804;53.120;8.764;2022-12-07T00:56:43;101400.88;;;5.91;52.41
54920;BME280;63804;53.120;8.764;2022-12-07T00:59:12;101402.56;;;5.87;52.57
54920;BME280;63804;53.120;8.764;2022-12-07T01:01:39;101405.88;;;5.84;52.53
54920;BME280;63804;53.120;8.764;2022-12-07T01:04:05;101401.63;;;5.78;52.58
54920;BME280;63804;53.120;8.764;2022-12-07T01:06:31;101404.25;;;5.83;52.42
54920;BME280;63804;53.120;8.764;2022-12-07T01:08:57;101397.66;;;5.89;52.16
54920;BME280;63804;53.120;8.764;2022-12-07T01:11:26;101403.09;;;5.89;52.09
54920;BME280;63804;53.120;8.764;2022-12-07T01:13:54;101404.69;;;5.90;52.11
54920;BME280;63804;53.120;8.764;2022-12-07T01:16:21;101408.13;;;5.96;52.11
54920;BME280;63804;53.120;8.764;2022-12-07T01:18:50;101416.97;;;6.02;51.74
54920;BME280;63804;53.120;8.764;2022-12-07T01:21:21;101411.13;;;5.94;51.80
54920;BME280;63804;53.120;8.764;2022-12-07T01:23:47;101409.09;;;5.86;51.74
54920;BME280;63804;53.120;8.764;2022-12-07T01:26:16;101401.47;;;5.88;51.69
54920;BME280;63804;53.120;8.764;2022-12-07T01:28:43;101398.59;;;5.99;51.30
54920;BME280;63804;53.120;8.764;2022-12-07T01:31:12;101396.47;;;5.96;51.26
54920;BME280;63804;53.120;8.764;2022-12-07T01:33:41;101392.97;;;5.95;51.15
54920;BME280;63804;53.120;8.764;2022-12-07T01:36:31;101390.13;;;5.86;50.92
54920;BME280;63804;53.120;8.764;2022-12-07T01:39:03;101397.06;;;5.92;51.18
54920;BME280;63804;53.120;8.764;2022-12-07T01:41:32;101394.44;;;5.87;51.29
54920;BME280;63804;53.120;8.764;2022-12-07T01:44:22;101395.16;;;5.93;50.93
54920;BME280;63804;53.120;8.764;2022-12-07T01:49:34;101393.06;;;5.71;51.10
54920;BME280;63804;53.120;8.764;2022-12-07T01:54:34;101393.25;;;5.93;50.46
54920;BME280;63804;53.120;8.764;2022-12-07T01:57:00;101393.25;;;5.93;50.66
54920;BME280;63804;53.120;8.764;2022-12-07T01:59:27;101389.75;;;5.93;50.50
54920;BME280;63804;53.120;8.764;2022-12-07T02:01:54;101385.13;;;5.93;50.50
54920;BME280;63804;53.120;8.764;2022-12-07T02:04:22;101384.03;;;5.94;50.70
54920;BME280;63804;53.120;8.764;2022-12-07T02:06:48;101376.00;;;5.89;50.74
54920;BME280;63804;53.120;8.764;2022-12-07T02:09:14;101384.84;;;5.95;50.91
54920;BME280;63804;53.120;8.764;2022-12-07T02:11:40;101375.53;;;5.82;51.17
54920;BME280;63804;53.120;8.764;2022-12-07T02:14:06;101383.75;;;5.77;51.25
54920;BME280;63804;53.120;8.764;2022-12-07T02:28:31;101365.09;;;5.56;51.86
54920;BME280;63804;53.120;8.764;2022-12-07T02:31:04;101362.69;;;5.55;51.59
54920;BME280;63804;53.120;8.764;2022-12-07T02:33:39;101358.00;;;5.61;51.38
54920;BME280;63804;53.120;8.764;2022-12-07T02:36:13;101359.84;;;5.46;51.77
54920;BME280;63804;53.120;8.764;2022-12-07T02:38:57;101359.53;;;5.48;51.57
54920;BME280;63804;53.120;8.764;2022-12-07T02:41:29;101354.94;;;5.48;51.57
54920;BME280;63804;53.120;8.764;2022-12-07T02:44:07;101366.47;;;5.54;51.56
54920;BME280;63804;53.120;8.764;2022-12-07T02:46:44;101363.34;;;5.47;51.66
54920;BME280;63804;53.120;8.764;2022-12-07T02:49:22;101363.06;;;5.48;51.54
54920;BME280;63804;53.120;8.764;2022-12-07T02:51:49;101374.31;;;5.55;51.58
54920;BME280;63804;53.120;8.764;2022-12-07T02:54:16;101366.81;;;5.52;51.75
54920;BME280;63804;53.120;8.764;2022-12-07T03:02:32;101374.25;;;5.42;51.46
54920;BME280;63804;53.120;8.764;2022-12-07T03:08:07;101367.00;;;5.56;51.55
54920;BME280;63804;53.120;8.764;2022-12-07T03:13:36;101367.97;;;5.46;51.48
54920;BME280;63804;53.120;8.764;2022-12-07T03:16:12;101361.81;;;5.60;51.19
54920;BME280;63804;53.120;8.764;2022-12-07T03:19:06;101364.22;;;5.61;51.33
54920;BME280;63804;53.120;8.764;2022-12-07T03:21:33;101363.31;;;5.66;51.25
54920;BME280;63804;53.120;8.764;2022-12-07T03:24:12;101364.38;;;5.70;51.02
54920;BME280;63804;53.120;8.764;2022-12-07T03:26:50;101362.66;;;5.74;51.19
54920;BME280;63804;53.120;8.764;2022-12-07T03:29:24;101360.19;;;5.78;51.02
54920;BME280;63804;53.120;8.764;2022-12-07T03:32:41;101358.13;;;5.88;50.81
54920;BME280;63804;53.120;8.764;2022-12-07T03:34:49;101350.50;;;5.90;50.61
54920;BME280;63804;53.120;8.764;2022-12-07T03:37:26;101352.78;;;5.83;50.70
54920;BME280;63804;53.120;8.764;2022-12-07T03:40:13;101352.78;;;5.83;50.82
54920;BME280;63804;53.120;8.764;2022-12-07T03:42:42;101349.31;;;5.97;50.51
54920;BME280;63804;53.120;8.764;2022-12-07T03:45:08;101357.75;;;5.95;50.67
54920;BME280;63804;53.120;8.764;2022-12-07T03:50:54;101370.78;;;5.93;51.04
54920;BME280;63804;53.120;8.764;2022-12-07T03:53:37;101368.78;;;5.99;51.05
54920;BME280;63804;53.120;8.764;2022-12-07T03:56:06;101367.94;;;5.84;51.40
54920;BME280;63804;53.120;8.764;2022-12-07T03:58:34;101358.38;;;5.73;51.88
54920;BME280;63804;53.120;8.764;2022-12-07T04:01:01;101344.06;;;5.86;51.82
54920;BME280;63804;53.120;8.764;2022-12-07T04:03:26;101345.66;;;5.87;51.89
54920;BME280;63804;53.120;8.764;2022-12-07T04:05:53;101340.53;;;5.86;51.57
54920;BME280;63804;53.120;8.764;2022-12-07T04:08:19;101343.78;;;5.69;52.12
54920;BME280;63804;53.120;8.764;2022-12-07T04:10:45;101352.34;;;5.76;51.84
54920;BME280;63804;53.120;8.764;2022-12-07T04:13:10;101354.53;;;5.74;51.88
54920;BME280;63804;53.120;8.764;2022-12-07T04:15:36;101354.78;;;5.78;51.65
54920;BME280;63804;53.120;8.764;2022-12-07T04:18:02;101347.44;;;5.78;51.51
54920;BME280;63804;53.120;8.764;2022-12-07T04:20:28;101348.81;;;5.75;51.63
54920;BME280;63804;53.120;8.764;2022-12-07T04:22:53;101352.00;;;5.64;52.24
54920;BME280;63804;53.120;8.764;2022-12-07T04:25:19;101356.59;;;5.63;52.07
54920;BME280;63804;53.120;8.764;2022-12-07T04:27:45;101363.31;;;5.66;52.08
54920;BME280;63804;53.120;8.764;2022-12-07T04:30:11;101373.22;;;5.56;52.26
54920;BME280;63804;53.120;8.764;2022-12-07T04:32:36;101353.91;;;5.63;52.16
54920;BME280;63804;53.120;8.764;2022-12-07T04:35:03;101354.53;;;5.74;51.88
54920;BME280;63804;53.120;8.764;2022-12-07T04:37:28;101356.44;;;5.73;51.66
54920;BME280;63804;53.120;8.764;2022-12-07T04:39:54;101357.41;;;5.64;52.08
54920;BME280;63804;53.120;8.764;2022-12-07T04:42:20;101354.13;;;5.67;51.97
54920;BME280;63804;53.120;8.764;2022-12-07T04:44:46;101349.06;;;5.60;51.91
54920;BME280;63804;53.120;8.764;2022-12-07T04:47:11;101349.78;;;5.66;51.96
54920;BME280;63804;53.120;8.764;2022-12-07T04:49:37;101348.13;;;5.70;51.58
54920;BME280;63804;53.120;8.764;2022-12-07T04:52:03;101355.19;;;5.66;51.84
54920;BME280;63804;53.120;8.764;2022-12-07T04:54:28;101351.81;;;5.74;51.44
54920;BME280;63804;53.120;8.764;2022-12-07T04:56:54;101347.81;;;5.71;51.62
54920;BME280;63804;53.120;8.764;2022-12-07T04:59:20;101354.63;;;5.69;51.70
54920;BME280;63804;53.120;8.764;2022-12-07T05:01:46;101354.63;;;5.69;51.86
54920;BME280;63804;53.120;8.764;2022-12-07T05:04:11;101347.81;;;5.71;51.70
54920;BME280;63804;53.120;8.764;2022-12-07T05:06:37;101340.06;;;5.65;51.83
54920;BME280;63804;53.120;8.764;2022-12-07T05:09:03;101339.47;;;5.68;51.65
54920;BME280;63804;53.120;8.764;2022-12-07T05:11:29;101346.88;;;5.62;51.67
54920;BME280;63804;53.120;8.764;2022-12-07T05:14:06;101339.25;;;5.45;52.00
54920;BME280;63804;53.120;8.764;2022-12-07T05:16:33;101343.75;;;5.36;52.09
54920;BME280;63804;53.120;8.764;2022-12-07T05:18:58;101344.81;;;5.35;52.05
54920;BME280;63804;53.120;8.764;2022-12-07T05:21:24;101351.88;;;5.36;52.03
54920;BME280;63804;53.120;8.764;2022-12-07T05:23:50;101349.50;;;5.48;51.72
54920;BME280;63804;53.120;8.764;2022-12-07T05:26:16;101345.94;;;5.53;51.63
54920;BME280;63804;53.120;8.764;2022-12-07T05:28:42;101348.03;;;5.37;51.94
54920;BME280;63804;53.120;8.764;2022-12-07T05:31:08;101352.44;;;5.33;51.89
54920;BME280;63804;53.120;8.764;2022-12-07T05:33:41;101352.66;;;5.36;51.74
54920;BME280;63804;53.120;8.764;2022-12-07T05:36:06;101348.88;;;5.37;51.65
54920;BME280;63804;53.120;8.764;2022-12-07T05:38:33;101344.47;;;5.42;51.62
54920;BME280;63804;53.120;8.764;2022-12-07T05:41:03;101343.09;;;5.44;51.39
54920;BME280;63804;53.120;8.764;2022-12-07T05:43:29;101339.63;;;5.38;51.62
54920;BME280;63804;53.120;8.764;2022-12-07T05:45:55;101337.22;;;5.37;51.47
54920;BME280;63804;53.120;8.764;2022-12-07T05:48:22;101335.47;;;5.46;51.33
54920;BME280;63804;53.120;8.764;2022-12-07T05:50:48;101330.28;;;5.50;51.12
54920;BME280;63804;53.120;8.764;2022-12-07T05:53:14;101329.31;;;5.41;51.47
54920;BME280;63804;53.120;8.764;2022-12-07T05:55:40;101324.56;;;5.51;51.22
54920;BME280;63804;53.120;8.764;2022-12-07T05:58:05;101333.25;;;5.48;51.17
54920;BME280;63804;53.120;8.764;2022-12-07T06:00:50;101339.72;;;5.52;51.18
54920;BME280;63804;53.120;8.764;2022-12-07T06:03:15;101332.19;;;5.49;51.27
54920;BME280;63804;53.120;8.764;2022-12-07T06:05:41;101343.59;;;5.46;51.13
54920;BME280;63804;53.120;8.764;2022-12-07T06:08:07;101346.31;;;5.46;51.25
54920;BME280;63804;53.120;8.764;2022-12-07T06:10:33;101353.75;;;5.54;51.07
54920;BME280;63804;53.120;8.764;2022-12-07T06:12:59;101360.19;;;5.59;51.14
54920;BME280;63804;53.120;8.764;2022-12-07T06:15:24;101359.59;;;5.62;51.04
54920;BME280;63804;53.120;8.764;2022-12-07T06:17:50;101359.16;;;5.73;50.91
54920;BME280;63804;53.120;8.764;2022-12-07T06:20:16;101358.88;;;5.75;50.64
54920;BME280;63804;53.120;8.764;2022-12-07T06:22:42;101364.88;;;5.72;50.97
54920;BME280;63804;53.120;8.764;2022-12-07T06:25:08;101370.44;;;5.62;51.10
54920;BME280;63804;53.120;8.764;2022-12-07T06:27:35;101366.66;;;5.63;51.00
54920;BME280;63804;53.120;8.764;2022-12-07T06:30:01;101368.03;;;5.60;50.80
54920;BME280;63804;53.120;8.764;2022-12-07T06:32:32;101376.88;;;5.66;50.78
54920;BME280;63804;53.120;8.764;2022-12-07T06:35:00;101369.66;;;5.61;50.68
54920;BME280;63804;53.120;8.764;2022-12-07T06:37:26;101370.00;;;5.54;50.79
54920;BME280;63804;53.120;8.764;2022-12-07T06:39:52;101367.31;;;5.54;50.78
54920;BME280;63804;53.120;8.764;2022-12-07T06:42:18;101365.75;;;5.48;51.02
54920;BME280;63804;53.120;8.764;2022-12-07T06:44:43;101366.47;;;5.35;51.25
54920;BME280;63804;53.120;8.764;2022-12-07T06:47:09;101362.03;;;5.44;51.02
54920;BME280;63804;53.120;8.764;2022-12-07T06:49:35;101361.50;;;5.42;51.14
54920;BME280;63804;53.120;8.764;2022-12-07T06:52:00;101360.34;;;5.48;51.07
54920;BME280;63804;53.120;8.764;2022-12-07T06:54:26;101354.78;;;5.59;50.86
54920;BME280;63804;53.120;8.764;2022-12-07T06:56:52;101353.41;;;5.61;51.04
54920;BME280;63804;53.120;8.764;2022-12-07T06:59:18;101363.66;;;5.64;50.86
54920;BME280;63804;53.120;8.764;2022-12-07T07:01:44;101361.22;;;5.63;50.78
54920;BME280;63804;53.120;8.764;2022-12-07T07:04:09;101362.97;;;5.53;51.38
54920;BME280;63804;53.120;8.764;2022-12-07T07:06:35;101368.91;;;5.55;51.26
54920;BME280;63804;53.120;8.764;2022-12-07T07:09:01;101373.00;;;5.53;51.26
54920;BME280;63804;53.120;8.764;2022-12-07T07:11:27;101373.00;;;5.53;51.50
54920;BME280;63804;53.120;8.764;2022-12-07T07:13:52;101367.81;;;5.56;51.41
54920;BME280;63804;53.120;8.764;2022-12-07T07:16:19;101373.09;;;5.48;51.46
54920;BME280;63804;53.120;8.764;2022-12-07T07:18:44;101369.19;;;5.54;51.27
54920;BME280;63804;53.120;8.764;2022-12-07T07:21:10;101366.91;;;5.42;51.58
54920;BME280;63804;53.120;8.764;2022-12-07T07:23:36;101369.34;;;5.44;51.73
54920;BME280;63804;53.120;8.764;2022-12-07T07:26:11;101372.88;;;5.44;51.41
54920;BME280;63804;53.120;8.764;2022-12-07T07:28:36;101368.63;;;5.38;51.53
54920;BME280;63804;53.120;8.764;2022-12-07T07:33:29;101371.41;;;5.33;51.67
54920;BME280;63804;53.120;8.764;2022-12-07T07:35:55;101366.41;;;5.40;51.41
54920;BME280;63804;53.120;8.764;2022-12-07T07:38:21;101361.41;;;5.28;51.64
54920;BME280;63804;53.120;8.764;2022-12-07T07:40:46;101350.81;;;5.32;51.61
54920;BME280;63804;53.120;8.764;2022-12-07T07:43:12;101354.03;;;5.34;51.56
54920;BME280;63804;53.120;8.764;2022-12-07T07:45:38;101358.94;;;5.32;51.57
54920;BME280;63804;53.120;8.764;2022-12-07T07:48:04;101360.81;;;5.31;51.46
54920;BME280;63804;53.120;8.764;2022-12-07T07:50:30;101361.06;;;5.35;51.25
54920;BME280;63804;53.120;8.764;2022-12-07T07:52:56;101363.72;;;5.40;51.41
54920;BME280;63804;53.120;8.764;2022-12-07T07:55:22;101353.91;;;5.44;51.09
54920;BME280;63804;53.120;8.764;2022-12-07T07:57:48;101363.72;;;5.40;51.17
54920;BME280;63804;53.120;8.764;2022-12-07T08:00:15;101380.03;;;5.35;51.25
54920;BME280;63804;53.120;8.764;2022-12-07T08:02:42;101372.19;;;5.33;51.36
54920;BME280;63804;53.120;8.764;2022-12-07T08:05:09;101373.38;;;5.22;51.50
54920;BME280;63804;53.120;8.764;2022-12-07T08:07:35;101367.06;;;5.32;51.29
54920;BME280;63804;53.120;8.764;2022-12-07T08:10:01;101376.22;;;5.36;51.23
54920;BME280;63804;53.120;8.764;2022-12-07T08:12:27;101377.34;;;5.30;51.26
54920;BME280;63804;53.120;8.764;2022-12-07T08:14:53;101369.16;;;5.16;51.46
54920;BME280;63804;53.120;8.764;2022-12-07T08:17:18;101373.38;;;5.22;51.27
54920;BME280;63804;53.120;8.764;2022-12-07T08:19:44;101380.34;;;5.28;51.16
54920;BME280;63804;53.120;8.764;2022-12-07T08:22:10;101380.47;;;5.42;50.86
54920;BME280;63804;53.120;8.764;2022-12-07T08:24:36;101380.69;;;5.46;50.93
54920;BME280;63804;53.120;8.764;2022-12-07T08:27:02;101384.63;;;5.53;50.66
54920;BME280;63804;53.120;8.764;2022-12-07T08:29:28;101395.19;;;5.55;50.70
54920;BME280;63804;53.120;8.764;2022-12-07T08:31:54;101394.47;;;5.49;50.93
54920;BME280;63804;53.120;8.764;2022-12-07T08:34:19;101396.88;;;5.51;50.73
54920;BME280;63804;53.120;8.764;2022-12-07T08:36:45;101390.78;;;5.40;51.15
54920;BME280;63804;53.120;8.764;2022-12-07T08:39:11;101385.72;;;5.33;51.20
54920;BME280;63804;53.120;8.764;2022-12-07T08:41:37;101390.78;;;5.40;51.20
54920;BME280;63804;53.120;8.764;2022-12-07T08:44:03;101382.16;;;5.38;51.45
54920;BME280;63804;53.120;8.764;2022-12-07T08:46:39;101383.53;;;5.35;51.47
54920;BME280;63804;53.120;8.764;2022-12-07T08:49:12;101387.81;;;5.17;51.98
54920;BME280;63804;53.120;8.764;2022-12-07T08:51:39;101397.09;;;5.30;51.80
54920;BME280;63804;53.120;8.764;2022-12-07T08:54:08;101385.88;;;5.42;51.37
54920;BME280;63804;53.120;8.764;2022-12-07T08:56:34;101404.31;;;5.59;51.13
54920;BME280;63804;53.120;8.764;2022-12-07T08:59:01;101397.03;;;5.60;51.18
54920;BME280;63804;53.120;8.764;2022-12-07T09:01:26;101404.31;;;5.59;50.94
54920;BME280;63804;53.120;8.764;2022-12-07T09:03:53;101403.94;;;5.66;50.89
54920;BME280;63804;53.120;8.764;2022-12-07T09:06:19;101394.44;;;5.68;50.73
54920;BME280;63804;53.120;8.764;2022-12-07T09:08:47;101399.50;;;5.75;50.52
54920;BME280;63804;53.120;8.764;2022-12-07T09:11:15;101386.16;;;5.79;50.29
54920;BME280;63804;53.120;8.764;2022-12-07T09:13:41;101394.38;;;5.73;50.41
54920;BME280;63804;53.120;8.764;2022-12-07T09:16:06;101389.31;;;5.67;50.65
54920;BME280;63804;53.120;8.764;2022-12-07T09:18:32;101386.69;;;5.62;50.89
54920;BME280;63804;53.120;8.764;2022-12-07T09:20:58;101391.53;;;5.65;50.65
54920;BME280;63804;53.120;8.764;2022-12-07T09:23:24;101387.34;;;5.53;50.99
54920;BME280;63804;53.120;8.764;2022-12-07T09:25:50;101394.88;;;5.56;50.83
54920;BME280;63804;53.120;8.764;2022-12-07T09:28:15;101398.16;;;5.72;50.53
54920;BME280;63804;53.120;8.764;2022-12-07T09:30:48;101390.94;;;5.68;50.67
54920;BME280;63804;53.120;8.764;2022-12-07T09:33:14;101379.28;;;5.67;50.75
54920;BME280;63804;53.120;8.764;2022-12-07T09:35:49;101379.94;;;5.59;51.23
54920;BME280;63804;53.120;8.764;2022-12-07T09:38:16;101365.44;;;5.69;50.89
54920;BME280;63804;53.120;8.764;2022-12-07T09:40:43;101367.00;;;5.75;50.90
54920;BME280;63804;53.120;8.764;2022-12-07T09:43:19;101368.38;;;5.91;50.71
54920;BME280;63804;53.120;8.764;2022-12-07T09:45:47;101373.19;;;5.94;50.49
54920;BME280;63804;53.120;8.764;2022-12-07T09:48:20;101377.28;;;5.92;50.38
54920;BME280;63804;53.120;8.764;2022-12-07T09:50:48;101374.44;;;5.83;50.83
54920;BME280;63804;53.120;8.764;2022-12-07T09:53:24;101373.28;;;5.70;51.06
54920;BME280;63804;53.120;8.764;2022-12-07T09:55:51;101371.44;;;5.66;51.24
54920;BME280;63804;53.120;8.764;2022-12-07T09:58:25;101366.31;;;5.83;50.84
54920;BME280;63804;53.120;8.764;2022-12-07T10:00:57;101371.41;;;6.04;50.45
54920;BME280;63804;53.120;8.764;2022-12-07T10:03:26;101366.28;;;6.02;50.28
54920;BME280;63804;53.120;8.764;2022-12-07T10:05:52;101369.47;;;6.23;49.82
54920;BME280;63804;53.120;8.764;2022-12-07T10:08:18;101373.91;;;6.33;49.70
54920;BME280;63804;53.120;8.764;2022-12-07T10:10:50;101381.53;;;6.31;49.68
54920;BME280;63804;53.120;8.764;2022-12-07T10:13:22;101378.59;;;6.27;49.81
54920;BME280;63804;53.120;8.764;2022-12-07T10:15:58;101374.25;;;6.12;50.09
54920;BME280;63804;53.120;8.764;2022-12-07T10:18:28;101379.84;;;6.02;50.25
54920;BME280;63804;53.120;8.764;2022-12-07T10:21:21;101375.63;;;5.96;50.04
54920;BME280;63804;53.120;8.764;2022-12-07T10:29:24;101360.25;;;5.91;50.05
54920;BME280;63804;53.120;8.764;2022-12-07T10:31:56;101358.75;;;5.99;50.04
54920;BME280;63804;53.120;8.764;2022-12-07T10:34:27;101365.75;;;5.86;50.39
54920;BME280;63804;53.120;8.764;2022-12-07T10:37:16;101359.75;;;5.89;50.25
54920;BME280;63804;53.120;8.764;2022-12-07T10:39:51;101353.56;;;6.03;50.04
54920;BME280;63804;53.120;8.764;2022-12-07T10:42:18;101352.94;;;6.06;49.87
54920;BME280;63804;53.120;8.764;2022-12-07T10:44:45;101357.19;;;6.12;49.80
54920;BME280;63804;53.120;8.764;2022-12-07T10:47:25;101358.81;;;6.27;49.36
54920;BME280;63804;53.120;8.764;2022-12-07T10:55:25;101336.13;;;6.23;48.98
54920;BME280;63804;53.120;8.764;2022-12-07T11:00:24;101337.72;;;6.24;49.50
54920;BME280;63804;53.120;8.764;2022-12-07T11:03:38;101333.59;;;6.12;49.65
54920;BME280;63804;53.120;8.764;2022-12-07T11:06:26;101343.53;;;6.17;49.70
54920;BME280;63804;53.120;8.764;2022-12-07T11:09:47;101351.38;;;6.19;49.78
54920;BME280;63804;53.120;8.764;2022-12-07T11:12:13;101351.94;;;6.02;50.19
54920;BME280;63804;53.120;8.764;2022-12-07T11:14:56;101349.31;;;5.97;50.49
54920;BME280;63804;53.120;8.764;2022-12-07T11:26:39;101305.94;;;6.29;49.36
54920;BME280;63804;53.120;8.764;2022-12-07T11:35:29;101303.72;;;6.31;49.49
54920;BME280;63804;53.120;8.764;2022-12-07T11:37:46;101306.22;;;6.42;49.38
54920;BME280;63804;53.120;8.764;2022-12-07T11:40:29;101310.25;;;6.58;49.16
54920;BME280;63804;53.120;8.764;2022-12-07T11:45:47;101310.84;;;6.69;49.37
54920;BME280;63804;53.120;8.764;2022-12-07T11:50:50;101314.56;;;6.59;49.53
54920;BME280;63804;53.120;8.764;2022-12-07T11:53:45;101298.81;;;6.61;49.46
54920;BME280;63804;53.120;8.764;2022-12-07T11:56:14;101305.31;;;6.60;49.44
54920;BME280;63804;53.120;8.764;2022-12-07T11:58:55;101303.63;;;6.64;49.48
54920;BME280;63804;53.120;8.764;2022-12-07T12:04:10;101284.44;;;6.75;49.04
54920;BME280;63804;53.120;8.764;2022-12-07T12:06:44;101287.13;;;6.89;49.06
54920;BME280;63804;53.120;8.764;2022-12-07T12:15:15;101285.41;;;7.07;48.75
54920;BME280;63804;53.120;8.764;2022-12-07T12:18:05;101280.97;;;7.11;48.93
54920;BME280;63804;53.120;8.764;2022-12-07T12:21:30;101270.94;;;7.11;48.46
54920;BME280;63804;53.120;8.764;2022-12-07T12:23:45;101267.63;;;7.00;48.34
54920;BME280;63804;53.120;8.764;2022-12-07T12:26:23;101259.59;;;6.95;48.52
54920;BME280;63804;53.120;8.764;2022-12-07T12:33:55;101256.78;;;6.86;48.20
54920;BME280;63804;53.120;8.764;2022-12-07T12:46:55;101282.53;;;6.34;50.09
54920;BME280;63804;53.120;8.764;2022-12-07T12:51:56;101269.88;;;6.43;50.34
54920;BME280;63804;53.120;8.764;2022-12-07T12:59:36;101261.75;;;6.43;50.26
54920;BME280;63804;53.120;8.764;2022-12-07T13:02:26;101253.63;;;6.43;50.02
54920;BME280;63804;53.120;8.764;2022-12-07T13:12:58;101240.25;;;6.46;50.02
54920;BME280;63804;53.120;8.764;2022-12-07T13:15:47;101233.31;;;6.40;49.93
54920;BME280;63804;53.120;8.764;2022-12-07T13:18:37;101234.22;;;6.36;50.41
54920;BME280;63804;53.120;8.764;2022-12-07T13:26:20;101228.91;;;6.44;50.16
54920;BME280;63804;53.120;8.764;2022-12-07T13:29:01;101225.06;;;6.45;50.10
54920;BME280;63804;53.120;8.764;2022-12-07T13:33:56;101223.16;;;6.46;50.16
54920;BME280;63804;53.120;8.764;2022-12-07T13:36:27;101223.47;;;6.58;49.97
54920;BME280;63804;53.120;8.764;2022-12-07T13:38:56;101224.25;;;6.59;49.82
54920;BME280;63804;53.120;8.764;2022-12-07T13:41:30;101229.28;;;6.52;49.88
54920;BME280;63804;53.120;8.764;2022-12-07T13:46:51;101232.16;;;6.69;49.51
54920;BME280;63804;53.120;8.764;2022-12-07T13:49:19;101234.28;;;6.72;49.82
54920;BME280;63804;53.120;8.764;2022-12-07T13:51:45;101232.78;;;6.80;49.66
54920;BME280;63804;53.120;8.764;2022-12-07T13:54:13;101232.28;;;6.78;49.59
54920;BME280;63804;53.120;8.764;2022-12-07T13:56:39;101240.00;;;6.84;49.71
54920;BME280;63804;53.120;8.764;2022-12-07T13:59:13;101233.69;;;6.75;49.83
54920;BME280;63804;53.120;8.764;2022-12-07T14:01:40;101228.84;;;6.72;49.78
54920;BME280;63804;53.120;8.764;2022-12-07T14:04:30;101241.75;;;6.66;49.96
54920;BME280;63804;53.120;8.764;2022-12-07T14:06:56;101237.94;;;6.54;49.49
54920;BME280;63804;53.120;8.764;2022-12-07T14:09:24;101230.00;;;6.43;49.73
54920;BME280;63804;53.120;8.764;2022-12-07T14:11:53;101231.72;;;6.53;49.45
54920;BME280;63804;53.120;8.764;2022-12-07T14:14:33;101223.56;;;6.53;49.30
54920;BME280;63804;53.120;8.764;2022-12-07T14:17:12;101224.19;;;6.50;49.23
54920;BME280;63804;53.120;8.764;2022-12-07T14:20:00;101225.88;;;6.60;49.03
54920;BME280;63804;53.120;8.764;2022-12-07T14:22:30;101210.63;;;6.50;49.60
54920;BME280;63804;53.120;8.764;2022-12-07T14:27:38;101236.72;;;6.46;49.55
54920;BME280;63804;53.120;8.764;2022-12-07T14:30:05;101247.97;;;6.39;49.88
54920;BME280;63804;53.120;8.764;2022-12-07T14:32:32;101247.38;;;6.28;49.96
54920;BME280;63804;53.120;8.764;2022-12-07T14:35:00;101243.56;;;6.29;50.07
54920;BME280;63804;53.120;8.764;2022-12-07T14:37:27;101231.41;;;6.27;50.31
54920;BME280;63804;53.120;8.764;2022-12-07T14:39:54;101233.81;;;6.15;50.10
54920;BME280;63804;53.120;8.764;2022-12-07T14:42:20;101227.59;;;6.00;50.39
54920;BME280;63804;53.120;8.764;2022-12-07T14:44:47;101224.88;;;6.00;50.16
54920;BME280;63804;53.120;8.764;2022-12-07T14:47:12;101220.44;;;5.90;50.31
54920;BME280;63804;53.120;8.764;2022-12-07T14:49:38;101225.06;;;5.90;50.42
54920;BME280;63804;53.120;8.764;2022-12-07T14:52:05;101228.66;;;5.85;50.52
54920;BME280;63804;53.120;8.764;2022-12-07T14:54:32;101220.13;;;5.92;50.30
54920;BME280;63804;53.120;8.764;2022-12-07T14:56:58;101219.66;;;5.90;50.26
54920;BME280;63804;53.120;8.764;2022-12-07T14:59:24;101215.50;;;5.92;50.28
54920;BME280;63804;53.120;8.764;2022-12-07T15:01:50;101213.34;;;5.94;50.21
54920;BME280;63804;53.120;8.764;2022-12-07T15:04:15;101214.44;;;5.93;50.16
54920;BME280;63804;53.120;8.764;2022-12-07T15:06:41;101211.63;;;5.85;50.28
54920;BME280;63804;53.120;8.764;2022-12-07T15:09:10;101215.72;;;5.82;50.20
54920;BME280;63804;53.120;8.764;2022-12-07T15:11:36;101216.28;;;5.79;50.21
54920;BME280;63804;53.120;8.764;2022-12-07T15:14:02;101217.03;;;5.85;50.13